Time;durP1;ratioP1;P1;durP2;ratioP2;P2;SDS_P1;SDS_P2;PMS_P1;PMS_P2;Temp;Humidity;BMP_temperature;BMP_pressure;BME280_temperature;BME280_humidity;BME280_pressure;Samples;Min_cycle;Max_cycle;Signal;HPM_P1;HPM_P2
2022/07/15 00:00:10;;;;;;;6.78;1.70;;;14.30;99.90;;;;;;5032537;28;20047;-83
2022/07/15 00:02:37;;;;;;;7.38;1.88;;;14.30;99.90;;;;;;5027332;28;20038;-83
2022/07/15 00:05:05;;;;;;;8.90;1.63;;;14.30;99.90;;;;;;5031669;28;20040;-83
2022/07/15 00:07:31;;;;;;;7.57;1.50;;;14.30;99.90;;;;;;5012677;28;20041;-83
2022/07/15 00:10:15;;;;;;;7.53;1.75;;;14.30;99.90;;;;;;5031785;28;20126;-85
2022/07/15 00:12:46;;;;;;;7.65;1.63;;;14.30;99.90;;;;;;5013798;28;20044;-84
2022/07/15 00:15:13;;;;;;;7.53;1.60;;;14.30;99.90;;;;;;5030732;28;20042;-84
2022/07/15 00:17:39;;;;;;;5.88;1.30;;;14.40;99.90;;;;;;5030886;28;20044;-86
2022/07/15 00:20:06;;;;;;;4.45;1.38;;;14.40;99.90;;;;;;5029024;28;20040;-83
2022/07/15 00:22:32;;;;;;;6.75;1.65;;;14.40;99.90;;;;;;5029153;28;20489;-85
2022/07/15 00:24:57;;;;;;;10.52;2.10;;;14.40;99.90;;;;;;5032724;28;20041;-84
2022/07/15 00:27:24;;;;;;;11.10;1.63;;;14.40;99.90;;;;;;5030587;28;20386;-84
2022/07/15 00:29:50;;;;;;;5.97;1.42;;;14.50;99.90;;;;;;5030291;28;20046;-85
2022/07/15 00:32:17;;;;;;;7.05;1.50;;;14.50;99.90;;;;;;4997498;28;20374;-84
2022/07/15 00:34:42;;;;;;;7.45;1.75;;;14.50;99.90;;;;;;5031960;28;20041;-84
2022/07/15 00:37:09;;;;;;;6.22;1.40;;;14.60;99.90;;;;;;5028943;28;20463;-84
2022/07/15 00:39:34;;;;;;;5.70;2.60;;;14.60;99.90;;;;;;5029650;28;20072;-84
2022/07/15 00:42:00;;;;;;;9.27;1.50;;;14.60;99.90;;;;;;5030605;28;20068;-84
2022/07/15 00:44:26;;;;;;;7.63;2.10;;;14.70;99.90;;;;;;5028450;28;20068;-84
2022/07/15 00:46:53;;;;;;;8.38;1.85;;;14.70;99.90;;;;;;5010781;28;20053;-83
2022/07/15 00:49:19;;;;;;;5.72;1.58;;;14.70;99.90;;;;;;5008957;28;20122;-84
2022/07/15 00:51:49;;;;;;;7.20;1.60;;;14.70;99.90;;;;;;5028430;28;20499;-84
2022/07/15 00:54:18;;;;;;;6.28;1.50;;;14.70;99.90;;;;;;5030568;28;20034;-85
2022/07/15 00:56:48;;;;;;;6.90;1.40;;;14.60;99.90;;;;;;5031057;28;20037;-84
2022/07/15 00:59:15;;;;;;;6.90;1.63;;;14.60;99.90;;;;;;5032312;28;20493;-84
2022/07/15 01:01:41;;;;;;;9.60;1.98;;;14.50;99.90;;;;;;5032381;28;20493;-84
2022/07/15 01:04:07;;;;;;;5.25;1.50;;;14.40;99.90;;;;;;5012872;28;20044;-84
2022/07/15 01:06:33;;;;;;;5.05;1.58;;;14.40;99.90;;;;;;5032019;28;20071;-83
2022/07/15 01:08:59;;;;;;;7.95;1.83;;;14.30;99.90;;;;;;5033555;28;20033;-85
2022/07/15 01:11:26;;;;;;;5.95;1.60;;;14.30;99.90;;;;;;5019487;28;20062;-85
2022/07/15 01:13:52;;;;;;;5.57;2.05;;;14.20;99.90;;;;;;5033556;28;20549;-84
2022/07/15 01:16:17;;;;;;;8.98;1.42;;;14.20;99.90;;;;;;5015628;28;20116;-84
2022/07/15 01:18:43;;;;;;;7.13;1.42;;;14.10;99.90;;;;;;5002335;28;20405;-84
2022/07/15 01:21:09;;;;;;;7.20;1.50;;;14.10;99.90;;;;;;5018258;28;20098;-83
2022/07/15 01:23:36;;;;;;;7.55;1.50;;;14.10;99.90;;;;;;5032087;28;20284;-84
2022/07/15 01:26:02;;;;;;;6.57;1.33;;;14.10;99.90;;;;;;5034428;28;20041;-83
2022/07/15 01:28:28;;;;;;;;;;;14.20;99.90;;;;;;5018907;28;20401;-83
2022/07/15 01:30:53;;;;;;;4.80;1.50;;;14.20;99.90;;;;;;5049083;28;19925;-84
2022/07/15 01:33:19;;;;;;;6.68;1.35;;;14.20;99.90;;;;;;5035532;28;20048;-83
2022/07/15 01:35:45;;;;;;;8.00;1.60;;;14.20;99.90;;;;;;5032206;28;20091;-84
2022/07/15 01:38:10;;;;;;;7.07;1.67;;;14.10;99.90;;;;;;5034524;28;20033;-84
2022/07/15 01:40:36;;;;;;;7.20;1.63;;;14.20;99.90;;;;;;5032311;28;20041;-84
2022/07/15 01:43:02;;;;;;;8.25;1.73;;;14.20;99.90;;;;;;5033364;28;20442;-84
2022/07/15 01:45:27;;;;;;;5.77;1.50;;;14.10;99.90;;;;;;5035514;28;20163;-84
2022/07/15 01:47:54;;;;;;;9.23;2.00;;;14.20;99.90;;;;;;5031735;28;20291;-84
2022/07/15 01:50:20;;;;;;;7.50;1.80;;;14.20;99.90;;;;;;5031926;28;20080;-83
2022/07/15 01:52:46;;;;;;;4.88;1.27;;;14.20;99.90;;;;;;5034314;28;20040;-83
2022/07/15 01:55:12;;;;;;;5.00;1.38;;;14.20;99.90;;;;;;5032026;28;20045;-84
2022/07/15 01:57:38;;;;;;;8.73;1.55;;;14.20;99.90;;;;;;5032071;28;20040;-84
2022/07/15 02:00:06;;;;;;;6.80;1.50;;;14.20;99.90;;;;;;5032166;28;20044;-84
2022/07/15 02:02:31;;;;;;;6.28;1.25;;;14.20;99.90;;;;;;5018802;28;20694;-84
2022/07/15 02:04:57;;;;;;;6.68;1.20;;;14.20;99.90;;;;;;5031266;28;20033;-84
2022/07/15 02:07:23;;;;;;;4.88;1.52;;;14.20;99.90;;;;;;5034881;28;20049;-84
2022/07/15 02:09:48;;;;;;;6.25;1.67;;;14.20;99.90;;;;;;5033948;28;20120;-84
2022/07/15 02:12:14;;;;;;;5.13;1.38;;;14.20;99.90;;;;;;5017468;28;20477;-83
2022/07/15 02:14:40;;;;;;;6.07;1.30;;;14.10;99.90;;;;;;5033942;28;20063;-83
2022/07/15 02:17:07;;;;;;;6.03;1.50;;;14.10;99.90;;;;;;5015142;28;20493;-84
2022/07/15 02:19:33;;;;;;;7.30;1.70;;;14.00;99.90;;;;;;5034615;28;20041;-83
2022/07/15 02:21:58;;;;;;;7.55;1.33;;;13.90;99.90;;;;;;5033448;28;20557;-83
2022/07/15 02:24:24;;;;;;;9.07;1.90;;;13.80;99.90;;;;;;5034275;28;20041;-83
2022/07/15 02:26:50;;;;;;;6.63;1.48;;;13.80;99.90;;;;;;5031753;28;20041;-84
2022/07/15 02:29:16;;;;;;;7.33;1.30;;;13.70;99.90;;;;;;5016603;28;20037;-83
2022/07/15 02:31:42;;;;;;;6.55;1.67;;;13.70;99.90;;;;;;5014349;28;20284;-84
2022/07/15 02:34:08;;;;;;;5.30;1.23;;;13.60;99.90;;;;;;5038424;28;20493;-84
2022/07/15 02:36:35;;;;;;;8.20;1.50;;;13.60;99.90;;;;;;5033955;28;20073;-84
2022/07/15 02:39:02;;;;;;;6.93;1.20;;;13.50;99.90;;;;;;5030859;28;20037;-83
2022/07/15 02:41:28;;;;;;;4.32;1.20;;;13.50;99.90;;;;;;5030876;28;20084;-83
2022/07/15 02:43:54;;;;;;;7.40;1.40;;;13.40;99.90;;;;;;5015520;28;20086;-83
2022/07/15 02:46:20;;;;;;;6.47;1.42;;;13.40;99.90;;;;;;5033814;28;20041;-84
2022/07/15 02:48:46;;;;;;;7.50;1.85;;;13.40;99.90;;;;;;5030781;28;20403;-83
2022/07/15 02:51:12;;;;;;;;;;;13.30;99.90;;;;;;5014566;28;20041;-83
2022/07/15 02:53:39;;;;;;;6.85;1.10;;;13.30;99.90;;;;;;5030611;28;19967;-83
2022/07/15 02:56:05;;;;;;;5.03;1.30;;;13.20;99.90;;;;;;5033817;28;20045;-84
2022/07/15 02:58:31;;;;;;;6.45;1.30;;;13.20;99.90;;;;;;4998143;28;20045;-84
2022/07/15 03:00:58;;;;;;;;;;;13.20;99.90;;;;;;5031596;28;20040;-83
2022/07/15 03:03:23;;;;;;;6.40;1.10;;;13.20;99.90;;;;;;5030590;28;19960;-83
2022/07/15 03:05:49;;;;;;;6.40;1.55;;;13.10;99.90;;;;;;5015132;28;20442;-85
2022/07/15 03:08:16;;;;;;;6.57;1.20;;;13.10;99.90;;;;;;5032870;28;20128;-84
2022/07/15 03:10:42;;;;;;;6.20;1.42;;;13.00;99.90;;;;;;5013793;28;20087;-83
2022/07/15 03:13:08;;;;;;;6.10;1.40;;;13.00;99.90;;;;;;5030615;28;20033;-84
2022/07/15 03:15:34;;;;;;;7.13;1.50;;;12.90;99.90;;;;;;5032942;28;20088;-84
2022/07/15 03:18:00;;;;;;;7.55;1.20;;;12.90;99.90;;;;;;5017260;28;20103;-84
2022/07/15 03:20:26;;;;;;;5.68;1.35;;;12.90;99.90;;;;;;5013584;28;20042;-84
2022/07/15 03:22:51;;;;;;;6.18;1.50;;;12.90;99.90;;;;;;5016640;28;20377;-84
2022/07/15 03:25:17;;;;;;;5.45;1.10;;;12.80;99.90;;;;;;5017115;28;20033;-83
2022/07/15 03:27:43;;;;;;;6.37;1.30;;;12.80;99.90;;;;;;5029467;28;20454;-84
2022/07/15 03:30:09;;;;;;;6.70;2.27;;;12.70;99.90;;;;;;5017131;28;20322;-84
2022/07/15 03:32:34;;;;;;;6.93;1.52;;;12.70;99.90;;;;;;5015189;28;20314;-83
2022/07/15 03:35:00;;;;;;;7.43;1.73;;;12.70;99.90;;;;;;5036310;28;20037;-84
2022/07/15 03:37:26;;;;;;;9.38;1.45;;;12.70;99.90;;;;;;5015653;28;20091;-83
2022/07/15 03:39:52;;;;;;;4.47;1.10;;;12.70;99.90;;;;;;5013674;28;20510;-84
2022/07/15 03:42:17;;;;;;;5.20;1.23;;;12.70;99.90;;;;;;5029594;28;20042;-83
2022/07/15 03:44:43;;;;;;;7.28;1.13;;;12.70;99.90;;;;;;5032697;28;20043;-84
2022/07/15 03:47:09;;;;;;;10.88;1.40;;;12.80;99.90;;;;;;4997696;28;20037;-84
2022/07/15 03:49:35;;;;;;;6.13;1.50;;;12.80;99.90;;;;;;5026686;28;20413;-84
2022/07/15 03:52:00;;;;;;;4.40;1.17;;;12.80;99.90;;;;;;5011572;28;20116;-84
2022/07/15 03:54:26;;;;;;;6.15;1.25;;;12.80;99.90;;;;;;5012289;28;20033;-85
2022/07/15 03:56:52;;;;;;;9.83;1.37;;;12.80;99.90;;;;;;5031866;28;20033;-84
2022/07/15 03:59:21;;;;;;;4.90;1.10;;;12.80;99.90;;;;;;5031794;28;20312;-85
2022/07/15 04:01:52;;;;;;;4.20;1.05;;;12.80;99.90;;;;;;5029038;28;20033;-84
2022/07/15 04:04:18;;;;;;;5.38;1.27;;;12.80;99.90;;;;;;5014227;28;20504;-84
2022/07/15 04:06:44;;;;;;;4.78;1.13;;;12.80;99.90;;;;;;5030634;28;20412;-84
2022/07/15 04:09:10;;;;;;;8.55;1.08;;;12.80;99.90;;;;;;5029450;28;20033;-85
2022/07/15 04:11:41;;;;;;;3.70;1.25;;;12.90;99.90;;;;;;5013956;28;20124;-84
2022/07/15 04:14:09;;;;;;;3.42;1.10;;;12.80;99.90;;;;;;5029011;28;20045;-83
2022/07/15 04:16:34;;;;;;;3.90;1.00;;;12.90;99.90;;;;;;5029447;28;20088;-85
2022/07/15 04:19:00;;;;;;;5.53;1.30;;;12.90;99.90;;;;;;5030954;28;20496;-85
2022/07/15 04:21:26;;;;;;;3.13;0.90;;;13.00;99.90;;;;;;4996381;28;20284;-85
2022/07/15 04:23:52;;;;;;;6.05;1.00;;;13.00;99.90;;;;;;5028813;28;20069;-85
2022/07/15 04:26:17;;;;;;;5.28;1.05;;;13.10;99.90;;;;;;5013067;28;20056;-85
2022/07/15 04:28:43;;;;;;;3.75;0.90;;;13.10;99.90;;;;;;5032060;28;20099;-84
2022/07/15 04:31:08;;;;;;;7.10;1.33;;;13.10;99.90;;;;;;5012505;28;20033;-85
2022/07/15 04:33:34;;;;;;;5.10;1.07;;;13.20;99.90;;;;;;5030911;28;20048;-85
2022/07/15 04:36:00;;;;;;;6.40;0.90;;;13.20;99.90;;;;;;5016229;28;20043;-85
2022/07/15 04:38:25;;;;;;;4.28;0.93;;;13.30;99.90;;;;;;5032142;28;20069;-85
2022/07/15 04:40:51;;;;;;;4.78;1.08;;;13.40;99.90;;;;;;5019245;28;20393;-85
2022/07/15 04:43:17;;;;;;;5.97;0.90;;;13.50;99.90;;;;;;5036556;28;20549;-85
2022/07/15 04:45:42;;;;;;;5.30;0.70;;;13.60;99.90;;;;;;5036361;28;20492;-85
2022/07/15 04:50:52;;;;;;;2.85;0.73;;;13.80;99.90;;;;;;5033134;28;20084;-85
2022/07/15 04:53:21;;;;;;;3.13;0.68;;;13.90;99.90;;;;;;5033191;28;20033;-84
2022/07/15 04:55:47;;;;;;;2.47;0.68;;;14.00;99.90;;;;;;5033441;28;20033;-85
2022/07/15 04:58:14;;;;;;;6.03;0.80;;;14.10;99.90;;;;;;5032791;28;20081;-85
2022/07/15 05:00:42;;;;;;;2.67;0.70;;;14.10;99.90;;;;;;5033606;28;20042;-84
2022/07/15 05:03:07;;;;;;;3.28;0.80;;;14.10;99.90;;;;;;5032711;28;20046;-84
2022/07/15 05:05:33;;;;;;;3.17;0.80;;;14.20;99.90;;;;;;5035855;28;20045;-85
2022/07/15 05:07:59;;;;;;;1.48;0.50;;;14.20;99.90;;;;;;5032358;28;20095;-85
2022/07/15 05:10:24;;;;;;;3.10;0.67;;;14.20;99.90;;;;;;5000235;28;20128;-83
2022/07/15 05:12:50;;;;;;;2.80;0.82;;;14.20;99.90;;;;;;5016044;28;20690;-85
2022/07/15 05:15:16;;;;;;;4.15;0.68;;;14.20;99.90;;;;;;5013680;28;20079;-85
2022/07/15 05:17:41;;;;;;;4.45;1.05;;;14.10;99.90;;;;;;5001559;28;20041;-85
2022/07/15 05:20:08;;;;;;;4.40;0.70;;;14.10;99.90;;;;;;5006158;28;20048;-85
2022/07/15 05:22:33;;;;;;;1.35;0.50;;;14.10;99.90;;;;;;5001433;28;20038;-84
2022/07/15 05:24:59;;;;;;;1.93;0.67;;;14.10;99.90;;;;;;5008553;28;20041;-85
2022/07/15 05:27:25;;;;;;;3.20;0.75;;;14.10;99.90;;;;;;5006937;28;20037;-85
2022/07/15 05:29:51;;;;;;;2.55;0.73;;;14.10;99.90;;;;;;5016859;28;20049;-85
2022/07/15 05:32:17;;;;;;;3.17;0.70;;;14.10;99.90;;;;;;5017599;28;20030;-84
2022/07/15 05:34:42;;;;;;;6.13;0.70;;;14.20;99.90;;;;;;5019469;28;20065;-84
2022/07/15 05:37:08;;;;;;;3.00;0.60;;;14.20;99.90;;;;;;5023082;28;20034;-84
2022/07/15 05:39:35;;;;;;;3.42;0.50;;;14.30;99.90;;;;;;5008974;28;20044;-84
2022/07/15 05:42:01;;;;;;;3.20;0.70;;;14.60;99.90;;;;;;5026507;28;20037;-85
2022/07/15 05:44:26;;;;;;;2.40;0.50;;;14.80;99.90;;;;;;5024086;28;20451;-85
2022/07/15 05:46:52;;;;;;;1.85;0.55;;;14.90;99.90;;;;;;5019705;28;20288;-85
2022/07/15 05:49:18;;;;;;;3.60;0.82;;;15.00;99.90;;;;;;5021855;28;20045;-84
2022/07/15 05:51:44;;;;;;;9.35;1.13;;;15.20;99.90;;;;;;5018877;28;20052;-83
2022/07/15 05:54:13;;;;;;;3.10;0.80;;;15.30;99.90;;;;;;5026006;28;20045;-85
2022/07/15 05:56:39;;;;;;;5.63;0.88;;;15.40;99.90;;;;;;5029564;28;20109;-85
2022/07/15 05:59:05;;;;;;;5.63;0.60;;;15.40;99.90;;;;;;5026502;28;20034;-85
2022/07/15 06:01:31;;;;;;;3.42;0.60;;;15.40;99.90;;;;;;5012029;28;20539;-85
2022/07/15 06:03:57;;;;;;;1.52;0.50;;;15.40;99.90;;;;;;5025403;28;20045;-85
2022/07/15 06:06:22;;;;;;;3.60;0.55;;;15.40;99.90;;;;;;5004486;28;20041;-85
2022/07/15 06:08:48;;;;;;;2.78;0.70;;;15.50;99.90;;;;;;5026490;28;20037;-85
2022/07/15 06:11:14;;;;;;;3.15;0.63;;;15.60;99.90;;;;;;5005213;28;20485;-85
2022/07/15 06:13:40;;;;;;;7.22;1.15;;;15.60;99.90;;;;;;5021965;28;20459;-85
2022/07/15 06:16:07;;;;;;;2.63;0.50;;;15.60;99.90;;;;;;5030023;28;20539;-85
2022/07/15 06:18:33;;;;;;;4.43;0.50;;;15.60;99.90;;;;;;5015124;28;20599;-85
2022/07/15 06:20:59;;;;;;;2.97;0.65;;;15.60;99.90;;;;;;5031158;28;20128;-85
2022/07/15 06:23:24;;;;;;;1.63;0.47;;;15.60;99.90;;;;;;5031277;28;20049;-85
2022/07/15 06:25:50;;;;;;;4.18;0.85;;;15.40;99.90;;;;;;5038427;28;20037;-85
2022/07/15 06:28:16;;;;;;;1.77;0.45;;;15.40;99.90;;;;;;5014496;28;20041;-85
2022/07/15 06:30:41;;;;;;;2.58;0.40;;;15.40;99.90;;;;;;5030956;28;20437;-84
2022/07/15 06:33:07;;;;;;;2.40;0.40;;;15.40;99.90;;;;;;5031291;28;20041;-85
2022/07/15 06:35:32;;;;;;;2.85;0.50;;;15.40;99.90;;;;;;5035026;28;20045;-85
2022/07/15 06:37:58;;;;;;;3.73;0.50;;;15.50;99.90;;;;;;5015511;28;20037;-85
2022/07/15 06:40:24;;;;;;;2.10;0.70;;;15.60;99.90;;;;;;5014213;28;20288;-84
2022/07/15 06:42:50;;;;;;;3.42;0.50;;;15.80;99.90;;;;;;5014586;28;20044;-83
2022/07/15 06:45:16;;;;;;;2.03;0.50;;;16.00;99.90;;;;;;5014245;28;20041;-83
2022/07/15 06:47:42;;;;;;;2.05;0.45;;;16.10;99.90;;;;;;5039921;28;20037;-85
2022/07/15 06:50:09;;;;;;;2.10;0.47;;;16.10;99.90;;;;;;5016789;28;20112;-84
2022/07/15 06:52:35;;;;;;;3.13;0.70;;;16.10;99.90;;;;;;5030490;28;20088;-85
2022/07/15 06:55:02;;;;;;;1.88;0.40;;;16.20;99.90;;;;;;5003221;28;20034;-85
2022/07/15 06:57:28;;;;;;;3.28;0.50;;;16.20;99.90;;;;;;5030763;28;20179;-85
2022/07/15 06:59:54;;;;;;;;;;;16.50;99.90;;;;;;5042329;28;20037;-85
2022/07/15 07:02:19;;;;;;;2.42;0.50;;;17.00;99.90;;;;;;5033442;28;19925;-84
2022/07/15 07:04:45;;;;;;;2.25;0.40;;;17.20;99.90;;;;;;5030702;28;20062;-84
2022/07/15 07:07:11;;;;;;;2.50;0.57;;;17.20;99.90;;;;;;5030480;28;20073;-84
2022/07/15 07:09:37;;;;;;;3.22;0.70;;;17.60;99.90;;;;;;5034706;28;20041;-84
2022/07/15 07:12:03;;;;;;;1.92;0.50;;;18.10;99.90;;;;;;5017230;28;20048;-84
2022/07/15 07:14:29;;;;;;;2.83;0.40;;;18.60;99.90;;;;;;5011332;28;20069;-84
2022/07/15 07:16:55;;;;;;;4.45;0.30;;;19.10;99.90;;;;;;5005575;28;20069;-83
2022/07/15 07:19:21;;;;;;;;;;;19.40;99.90;;;;;;5020373;28;20038;-85
2022/07/15 07:21:47;;;;;;;3.15;0.60;;;19.60;99.90;;;;;;5021894;28;19924;-84
2022/07/15 07:24:12;;;;;;;1.67;0.30;;;19.80;99.90;;;;;;5004266;28;20046;-84
2022/07/15 07:26:38;;;;;;;5.45;0.40;;;19.90;99.90;;;;;;5020329;28;20051;-84
2022/07/15 07:29:04;;;;;;;3.05;0.40;;;19.70;99.90;;;;;;5025907;28;20041;-84
2022/07/15 07:31:29;;;;;;;4.43;0.30;;;19.50;99.90;;;;;;5022741;28;20046;-85
2022/07/15 07:33:57;;;;;;;4.65;0.57;;;19.30;99.90;;;;;;5019409;28;20084;-84
2022/07/15 07:36:22;;;;;;;2.80;0.30;;;19.00;99.90;;;;;;4999782;28;20449;-85
2022/07/15 07:38:48;;;;;;;2.58;0.30;;;18.70;99.90;;;;;;5020491;28;20034;-85
2022/07/15 07:41:14;;;;;;;3.90;0.38;;;18.30;99.90;;;;;;5031683;28;20387;-85
2022/07/15 07:43:40;;;;;;;3.90;0.40;;;18.00;99.90;;;;;;5016331;28;20042;-84
2022/07/15 07:46:06;;;;;;;2.35;0.30;;;17.80;99.90;;;;;;5007327;28;20041;-85
2022/07/15 07:48:31;;;;;;;1.65;0.20;;;17.70;99.90;;;;;;5017338;28;20045;-82
2022/07/15 07:50:58;;;;;;;1.80;0.30;;;17.80;99.90;;;;;;5018256;28;20168;-84
2022/07/15 07:53:24;;;;;;;2.20;0.40;;;17.70;99.90;;;;;;5014943;28;20057;-83
2022/07/15 07:55:50;;;;;;;4.28;0.30;;;17.90;99.90;;;;;;5015734;28;20038;-83
2022/07/15 07:58:17;;;;;;;3.25;0.30;;;18.00;99.90;;;;;;5000573;28;20040;-84
2022/07/15 08:00:44;;;;;;;4.28;0.50;;;18.10;99.90;;;;;;5021567;28;20047;-84
2022/07/15 08:03:10;;;;;;;2.13;0.30;;;18.10;99.90;;;;;;5013832;28;20037;-84
2022/07/15 08:05:36;;;;;;;3.67;0.40;;;17.80;99.90;;;;;;5032058;28;20049;-84
2022/07/15 08:08:19;;;;;;;2.95;0.25;;;17.60;99.90;;;;;;5029283;28;20045;-85
2022/07/15 08:10:47;;;;;;;1.15;0.30;;;17.50;99.90;;;;;;5026027;28;20137;-84
2022/07/15 08:13:14;;;;;;;1.80;0.28;;;17.40;99.90;;;;;;5024770;28;20044;-83
2022/07/15 08:15:40;;;;;;;;;;;17.40;99.90;;;;;;5019374;28;20053;-84
2022/07/15 08:18:06;;;;;;;2.40;0.20;;;17.60;99.90;;;;;;5026646;28;19977;-84
2022/07/15 08:20:32;;;;;;;4.35;0.30;;;17.70;99.90;;;;;;5021225;28;20050;-84
2022/07/15 08:22:58;;;;;;;1.70;0.30;;;17.60;99.90;;;;;;5021959;28;20120;-84
2022/07/15 08:25:25;;;;;;;;;;;17.50;99.90;;;;;;5019344;28;20042;-83
2022/07/15 08:27:50;;;;;;;2.83;0.50;;;17.40;99.90;;;;;;5021872;28;19967;-84
2022/07/15 08:30:16;;;;;;;5.43;0.60;;;17.30;99.90;;;;;;5018932;28;20110;-84
2022/07/15 08:32:42;;;;;;;3.70;0.35;;;17.20;99.90;;;;;;5019563;28;20049;-84
2022/07/15 08:35:08;;;;;;;1.48;0.30;;;17.30;99.90;;;;;;5030412;28;20037;-84
2022/07/15 08:37:33;;;;;;;0.60;0.10;;;17.40;99.90;;;;;;5021277;28;20042;-84
2022/07/15 08:39:59;;;;;;;1.92;0.30;;;17.50;99.90;;;;;;5020010;28;20042;-84
2022/07/15 08:42:25;;;;;;;5.13;0.47;;;17.80;99.90;;;;;;5018544;28;20051;-83
2022/07/15 08:44:53;;;;;;;2.85;0.50;;;18.10;99.90;;;;;;5019232;28;20048;-83
2022/07/15 08:47:23;;;;;;;2.47;0.30;;;18.40;99.90;;;;;;5021365;28;20395;-84
2022/07/15 08:49:57;;;;;;;2.35;0.30;;;18.80;99.90;;;;;;5025097;28;20037;-84
2022/07/15 08:52:24;;;;;;;2.45;0.20;;;19.20;99.90;;;;;;5021384;28;20534;-84
2022/07/15 08:54:51;;;;;;;2.53;0.20;;;19.60;99.90;;;;;;5025673;28;20551;-85
2022/07/15 08:57:17;;;;;;;1.63;0.13;;;20.00;99.90;;;;;;5018735;28;20065;-85
2022/07/15 08:59:45;;;;;;;2.50;0.20;;;20.20;99.90;;;;;;5019775;28;20073;-84
2022/07/15 09:02:13;;;;;;;1.38;0.20;;;20.60;99.90;;;;;;5017764;28;20064;-84
2022/07/15 09:05:16;;;;;;;1.48;0.20;;;20.70;99.90;;;;;;5021297;28;20045;-84
2022/07/15 09:08:01;;;;;;;0.95;0.20;;;20.80;99.90;;;;;;5019612;28;20038;-84
2022/07/15 09:10:54;;;;;;;1.10;0.17;;;20.50;99.90;;;;;;5020280;28;20371;-84
2022/07/15 09:13:35;;;;;;;1.80;0.20;;;20.30;99.90;;;;;;5030562;28;20018;-84
2022/07/15 09:16:05;;;;;;;2.60;0.20;;;20.10;99.90;;;;;;5021542;28;20073;-84
2022/07/15 09:18:50;;;;;;;1.02;0.45;;;19.90;99.90;;;;;;5019189;28;20042;-84
2022/07/15 09:21:21;;;;;;;0.77;0.20;;;19.60;99.90;;;;;;5031025;28;20033;-85
2022/07/15 09:23:48;;;;;;;0.60;0.10;;;19.30;99.90;;;;;;5015609;28;20092;-84
2022/07/15 09:26:29;;;;;;;1.55;0.20;;;19.20;99.90;;;;;;5031694;28;20037;-83
2022/07/15 09:28:56;;;;;;;1.80;0.10;;;19.00;99.90;;;;;;5041788;28;20044;-84
2022/07/15 09:34:23;;;;;;;2.05;0.30;;;19.10;99.90;;;;;;5023892;28;20195;-84
2022/07/15 09:36:54;;;;;;;1.48;0.30;;;19.50;99.90;;;;;;5023834;28;20044;-85
2022/07/15 09:39:24;;;;;;;3.13;0.30;;;20.00;99.90;;;;;;4989779;28;20449;-84
2022/07/15 09:41:50;;;;;;;1.05;0.22;;;20.10;99.90;;;;;;5005029;28;20072;-84
2022/07/15 09:44:20;;;;;;;1.60;0.28;;;20.50;99.90;;;;;;5022329;28;20061;-84
2022/07/15 09:46:55;;;;;;;1.40;0.20;;;20.80;99.90;;;;;;5022736;28;20077;-84
2022/07/15 09:49:26;;;;;;;3.55;0.15;;;21.00;99.90;;;;;;5021380;28;20052;-84
2022/07/15 09:52:01;;;;;;;1.80;0.35;;;21.20;99.90;;;;;;5022759;28;20069;-83
2022/07/15 09:54:30;;;;;;;1.13;0.20;;;21.40;99.90;;;;;;5020802;28;20116;-85
2022/07/15 09:56:57;;;;;;;0.95;0.20;;;21.40;99.90;;;;;;5022332;28;20039;-85
2022/07/15 09:59:24;;;;;;;2.47;0.30;;;21.40;99.90;;;;;;5021403;28;20045;-84
2022/07/15 10:01:49;;;;;;;;;;;21.40;99.90;;;;;;5022145;28;20041;-84
2022/07/15 10:04:20;;;;;;;1.83;0.30;;;21.30;99.90;;;;;;5021612;28;19968;-85
2022/07/15 10:06:51;;;;;;;1.83;0.32;;;21.30;99.90;;;;;;5025971;28;20124;-85
2022/07/15 10:09:22;;;;;;;0.60;0.10;;;21.40;99.90;;;;;;5021608;28;20049;-83
2022/07/15 10:11:52;;;;;;;1.77;0.22;;;21.50;99.90;;;;;;5021850;28;20285;-83
2022/07/15 10:14:54;;;;;;;1.38;0.10;;;21.50;99.90;;;;;;5023564;28;20052;-83
2022/07/15 10:17:38;;;;;;;2.63;0.30;;;21.40;99.90;;;;;;5029341;28;20037;-81
2022/07/15 10:20:13;;;;;;;0.70;0.20;;;21.60;99.90;;;;;;5032492;28;20053;-81
2022/07/15 10:22:53;;;;;;;1.55;0.20;;;21.60;99.90;;;;;;5034214;28;20043;-83
2022/07/15 10:25:33;;;;;;;1.25;0.10;;;21.70;99.90;;;;;;5032394;28;20045;-84
2022/07/15 10:28:36;;;;;;;1.65;0.22;;;22.10;99.90;;;;;;5042907;22;20054;-82
2022/07/15 10:31:16;;;;;;;1.35;0.28;;;22.60;99.90;;;;;;5001980;28;20044;-83
2022/07/15 10:33:42;;;;;;;1.27;0.20;;;22.70;99.90;;;;;;5024544;28;20108;-83
2022/07/15 10:36:08;;;;;;;;;;;22.80;99.90;;;;;;4980878;28;20504;-84
2022/07/15 10:38:34;;;;;;;0.38;0.10;;;22.40;99.40;;;;;;4999460;28;19917;-84
2022/07/15 10:41:09;;;;;;;1.55;0.10;;;22.50;99.90;;;;;;4988110;28;20042;-85
2022/07/15 10:43:40;;;;;;;0.50;0.13;;;22.50;99.60;;;;;;4998969;28;20161;-86
2022/07/15 10:46:28;;;;;;;0.60;0.20;;;22.40;99.70;;;;;;5003660;28;20042;-84
2022/07/15 10:49:00;;;;;;;1.27;0.17;;;22.30;99.90;;;;;;5004671;28;20039;-83
2022/07/15 10:51:35;;;;;;;1.10;0.20;;;22.40;99.90;;;;;;5001302;28;20042;-85
2022/07/15 10:54:02;;;;;;;1.17;0.10;;;22.50;99.90;;;;;;4996290;28;20046;-84
2022/07/15 10:56:30;;;;;;;1.65;0.20;;;22.30;99.30;;;;;;5001338;28;20038;-84
2022/07/15 10:59:16;;;;;;;1.13;0.10;;;22.40;99.90;;;;;;4988713;28;20042;-84
2022/07/15 11:01:45;;;;;;;0.85;0.10;;;22.20;99.70;;;;;;5001533;28;20100;-83
2022/07/15 11:04:18;;;;;;;0.95;0.20;;;21.90;99.10;;;;;;5005968;28;20057;-83
2022/07/15 11:07:02;;;;;;;0.90;0.10;;;21.80;99.90;;;;;;5001199;28;20120;-84
2022/07/15 11:09:48;;;;;;;2.80;0.47;;;21.50;99.80;;;;;;5000878;28;20405;-84
2022/07/15 11:12:16;;;;;;;2.20;0.20;;;21.30;99.90;;;;;;5001931;28;20034;-83
2022/07/15 11:14:49;;;;;;;1.17;0.10;;;21.20;99.90;;;;;;4964722;28;20379;-83
2022/07/15 11:17:17;;;;;;;2.45;0.25;;;21.20;99.90;;;;;;5002884;28;20042;-83
2022/07/15 11:19:52;;;;;;;0.88;0.22;;;21.00;99.90;;;;;;4996426;28;20042;-83
2022/07/15 11:22:20;;;;;;;0.82;0.10;;;21.00;99.90;;;;;;5002977;28;20076;-83
2022/07/15 11:24:46;;;;;;;2.20;0.30;;;21.20;99.90;;;;;;5002787;28;20037;-83
2022/07/15 11:27:12;;;;;;;2.13;0.20;;;21.20;99.90;;;;;;5000403;28;20044;-82
2022/07/15 11:29:41;;;;;;;0.95;0.20;;;21.20;99.90;;;;;;5002470;28;20156;-83
2022/07/15 11:32:07;;;;;;;1.15;0.20;;;21.00;99.90;;;;;;4984882;28;20038;-83
2022/07/15 11:34:48;;;;;;;1.45;0.20;;;20.90;99.90;;;;;;4997694;28;20497;-82
2022/07/15 11:37:18;;;;;;;1.52;0.20;;;20.70;99.90;;;;;;5005425;28;20042;-82
2022/07/15 11:40:05;;;;;;;1.17;0.20;;;20.40;99.90;;;;;;4998364;28;20049;-83
2022/07/15 11:45:30;;;;;;;2.63;0.30;;;20.30;99.90;;;;;;5003719;28;20505;-83
2022/07/15 11:47:55;;;;;;;1.67;0.32;;;20.40;99.90;;;;;;5001970;28;20052;-82
2022/07/15 11:50:21;;;;;;;2.72;0.30;;;20.40;99.90;;;;;;5005858;28;20037;-82
2022/07/15 11:52:50;;;;;;;1.00;0.20;;;20.60;99.90;;;;;;5004289;28;20061;-82
2022/07/15 11:55:17;;;;;;;1.73;0.20;;;20.80;99.90;;;;;;4980407;28;20038;-83
2022/07/15 11:57:46;;;;;;;0.40;0.20;;;20.80;99.90;;;;;;4999439;28;20030;-82
2022/07/15 12:00:13;;;;;;;1.58;0.20;;;21.00;99.90;;;;;;5023874;28;20038;-83
2022/07/15 12:02:39;;;;;;;2.35;0.30;;;21.20;99.90;;;;;;5000205;28;20053;-83
2022/07/15 12:05:06;;;;;;;0.80;0.20;;;21.40;99.90;;;;;;4984138;28;20042;-83
2022/07/15 12:07:44;;;;;;;0.45;0.20;;;21.80;99.90;;;;;;5005626;28;20046;-84
2022/07/15 12:10:11;;;;;;;3.05;0.20;;;21.70;99.40;;;;;;4998770;28;20034;-83
2022/07/15 12:12:54;;;;;;;0.52;0.30;;;21.60;99.90;;;;;;4979806;28;20464;-83
2022/07/15 12:15:21;;;;;;;2.30;0.30;;;21.40;99.90;;;;;;4978429;28;20385;-83
2022/07/15 12:17:47;;;;;;;1.38;0.30;;;21.30;99.90;;;;;;5002885;28;20097;-83
2022/07/15 12:20:13;;;;;;;2.25;0.40;;;20.90;99.90;;;;;;4993772;28;20034;-83
2022/07/15 12:23:06;;;;;;;0.80;0.30;;;20.70;99.90;;;;;;4987794;28;20398;-83
2022/07/15 12:25:32;;;;;;;0.95;0.30;;;20.50;99.90;;;;;;4997415;28;20072;-83
2022/07/15 12:27:58;;;;;;;0.20;0.20;;;20.40;99.90;;;;;;5001789;28;20055;-82
2022/07/15 12:30:44;;;;;;;3.17;0.57;;;20.20;99.90;;;;;;4999704;28;20042;-82
2022/07/15 12:33:21;;;;;;;2.83;0.43;;;20.40;99.90;;;;;;4982990;28;20130;-82
2022/07/15 12:35:48;;;;;;;2.20;0.38;;;20.40;99.90;;;;;;5004158;28;20045;-82
2022/07/15 12:38:30;;;;;;;0.85;0.30;;;20.40;99.90;;;;;;5002094;28;20038;-82
2022/07/15 12:41:23;;;;;;;2.47;0.38;;;20.50;99.90;;;;;;4983221;28;20043;-83
2022/07/15 12:43:57;;;;;;;1.48;0.40;;;20.50;99.90;;;;;;4986800;28;20046;-83
2022/07/15 12:46:55;;;;;;;4.10;0.40;;;20.50;99.90;;;;;;4980003;28;20117;-83
2022/07/15 12:49:50;;;;;;;2.58;0.30;;;20.50;99.90;;;;;;5013907;28;20042;-83
2022/07/15 12:52:22;;;;;;;1.02;0.30;;;20.60;99.90;;;;;;5003504;28;20053;-82
2022/07/15 12:54:49;;;;;;;1.13;0.30;;;20.50;99.90;;;;;;5000463;28;20042;-83
2022/07/15 12:57:34;;;;;;;1.20;0.40;;;20.50;99.90;;;;;;4998691;28;20121;-82
2022/07/15 13:00:07;;;;;;;3.78;0.90;;;20.30;99.90;;;;;;5005052;28;20044;-83
2022/07/15 13:02:56;;;;;;;1.23;0.40;;;20.20;99.90;;;;;;5004349;28;20132;-82